AXCGGARGarmin  id=247  GPS 72 Software Version 2.50|2140330771
HFDTE210813
HFPLTPilot:UNREGISTERED
HFTZOTimezone:2
HFSITSite:
HPGTYGliderType:
HPGIDGliderID:
HFDTM100DATUM:WGS-1984
HFCIDCOMPETITIONID:
HFCCLCOMPETITIONCLASS:
LXCG     ICON:C:\Program Files\CompeGPS\symbols\IconsPlay\cronos.ico
LXCG     COLOR:000119000
I00
B1705343736052N00046455WA0000000198
B1705403736057N00046436WA0000000187
B1705463736060N00046418WA0000000186
B1705523736057N00046400WA0000000186
B1705583736062N00046378WA0000000186
B1706043736069N00046355WA0000000186
B1706103736079N00046333WA0000000186
B1706163736089N00046310WA0000000187
B1706223736096N00046285WA0000000188
B1706283736096N00046265WA0000000189
B1706343736110N00046241WA0000000191
B1706403736128N00046216WA0000000195
B1706463736143N00046189WA0000000197
B1706523736149N00046158WA0000000199
B1706583736144N00046138WA0000000203
B1707043736134N00046127WA0000000204
B1707103736123N00046124WA0000000203
B1707163736117N00046157WA0000000202
B1707223736118N00046195WA0000000202
B1707283736118N00046232WA0000000201
B1707343736117N00046269WA0000000202
B1707403736115N00046307WA0000000202
B1707463736111N00046345WA0000000208
B1707523736101N00046375WA0000000214
B1707583736101N00046361WA0000000218
B1708043736114N00046343WA0000000225
B1708103736118N00046323WA0000000228
B1708163736126N00046302WA0000000232
B1708223736136N00046280WA0000000233
B1708283736149N00046258WA0000000234
B1708343736161N00046234WA0000000235
B1708403736174N00046208WA0000000236
B1708463736178N00046179WA0000000235
B1708523736167N00046188WA0000000234
B1708583736158N00046213WA0000000232
B1709043736148N00046243WA0000000229
B1709103736137N00046270WA0000000227
B1709163736136N00046308WA0000000225
B1709223736128N00046349WA0000000226
B1709283736115N00046371WA0000000228
B1709343736107N00046367WA0000000232
B1709403736103N00046358WA0000000235
B1709463736093N00046356WA0000000239
B1709523736090N00046347WA0000000242
B1709583736096N00046330WA0000000242
B1710043736114N00046309WA0000000247
B1710103736130N00046289WA0000000252
B1710163736146N00046270WA0000000254
B1710223736161N00046249WA0000000252
B1710283736177N00046226WA0000000254
B1710343736193N00046200WA0000000255
B1710403736189N00046184WA0000000258
B1710463736177N00046201WA0000000264
B1710523736172N00046231WA0000000264
B1710583736169N00046267WA0000000265
B1711043736165N00046309WA0000000269
B1711103736159N00046337WA0000000271
B1711163736153N00046333WA0000000267
B1711223736166N00046314WA0000000266
B1711283736167N00046297WA0000000275
B1711343736171N00046278WA0000000280
B1711403736177N00046255WA0000000284
B1711463736189N00046227WA0000000298
B1711523736190N00046199WA0000000307
B1711583736180N00046202WA0000000309
B1712043736180N00046236WA0000000310
B1712103736176N00046270WA0000000317
B1712163736168N00046299WA0000000321
B1712223736161N00046290WA0000000320
B1712283736180N00046269WA0000000322
B1712343736195N00046245WA0000000328
B1712403736193N00046230WA0000000332
B1712463736185N00046252WA0000000331
B1712523736185N00046287WA0000000335
B1712583736175N00046292WA0000000337
B1713043736188N00046271WA0000000339
B1713103736194N00046251WA0000000341
B1713163736186N00046266WA0000000343
B1713223736174N00046276WA0000000342
B1713283736185N00046255WA0000000342
B1713343736196N00046233WA0000000343
B1713403736188N00046246WA0000000342
B1713463736183N00046275WA0000000340
B1713523736171N00046276WA0000000339
B1713583736189N00046255WA0000000339
B1714043736202N00046231WA0000000339
B1714103736191N00046235WA0000000339
B1714163736191N00046269WA0000000339
B1714223736180N00046290WA0000000339
B1714283736163N00046307WA0000000333
B1714343736146N00046326WA0000000330
B1714403736128N00046344WA0000000326
B1714463736111N00046361WA0000000323
B1714523736093N00046376WA0000000319
B1714583736076N00046389WA0000000316
B1715043736059N00046404WA0000000311
B1715103736042N00046419WA0000000303
B1715163736024N00046431WA0000000298
B1715223736005N00046444WA0000000290
B1715283735985N00046457WA0000000283
B1715343735967N00046471WA0000000277
B1715403735948N00046486WA0000000269
B1715463735931N00046504WA0000000263
B1715523735914N00046522WA0000000261
B1715583735896N00046535WA0000000256
B1716043735879N00046551WA0000000249
B1716103735863N00046567WA0000000243
B1716163735845N00046583WA0000000240
B1716223735827N00046597WA0000000237
B1716283735807N00046608WA0000000234
B1716343735787N00046614WA0000000234
B1716403735770N00046614WA0000000232
B1716463735752N00046610WA0000000229
B1716523735740N00046597WA0000000227
B1716583735752N00046569WA0000000223
B1717043735776N00046542WA0000000217
B1717103735805N00046518WA0000000213
B1717163735837N00046498WA0000000208
B1717223735872N00046482WA0000000203
B1717283735908N00046467WA0000000199
B1717343735943N00046452WA0000000194
B1717403735977N00046434WA0000000191
B1717463736007N00046413WA0000000188
B1717523736035N00046389WA0000000189
B1717583736063N00046366WA0000000191
B1718043736087N00046342WA0000000195
B1718103736097N00046316WA0000000201
B1718163736107N00046288WA0000000206
B1718223736116N00046258WA0000000211
B1718283736132N00046231WA0000000221
B1718343736155N00046207WA0000000222
B1718403736159N00046180WA0000000223
B1718463736150N00046194WA0000000226
B1718523736148N00046225WA0000000227
B1718583736140N00046255WA0000000230
B1719043736139N00046286WA0000000236
B1719103736141N00046324WA0000000235
B1719163736140N00046360WA0000000236
B1719223736134N00046359WA0000000237
B1719283736141N00046340WA0000000239
B1719343736145N00046318WA0000000242
B1719403736149N00046296WA0000000244
B1719463736153N00046271WA0000000250
B1719523736160N00046243WA0000000256
B1719583736178N00046215WA0000000258
B1720043736195N00046182WA0000000259
B1720103736186N00046178WA0000000259
B1720163736186N00046206WA0000000259
B1720223736178N00046232WA0000000265
B1720283736170N00046260WA0000000270
B1720343736166N00046296WA0000000274
B1720403736168N00046336WA0000000275
B1720463736159N00046340WA0000000276
B1720523736165N00046320WA0000000278
B1720583736166N00046303WA0000000283
B1721043736166N00046286WA0000000284
B1721103736175N00046261WA0000000284
B1721163736190N00046231WA0000000289
B1721223736200N00046201WA0000000296
B1721283736191N00046190WA0000000297
B1721343736185N00046212WA0000000301
B1721403736181N00046239WA0000000307
B1721463736165N00046259WA0000000314
B1721523736161N00046295WA0000000313
B1721583736158N00046332WA0000000313
B1722043736149N00046330WA0000000311
B1722103736163N00046307WA0000000312
B1722163736175N00046288WA0000000313
B1722223736187N00046265WA0000000320
B1722283736199N00046238WA0000000329
B1722343736198N00046220WA0000000331
B1722403736190N00046235WA0000000334
B1722463736191N00046267WA0000000339
B1722523736182N00046282WA0000000343
B1722583736185N00046262WA0000000345
B1723043736206N00046237WA0000000346
B1723103736205N00046224WA0000000345
B1723163736199N00046246WA0000000345
B1723223736194N00046270WA0000000347
B1723283736183N00046282WA0000000350
B1723343736172N00046291WA0000000351
B1723403736172N00046274WA0000000352
B1723463736189N00046248WA0000000355
B1723523736194N00046223WA0000000359
B1723583736186N00046224WA0000000360
B1724043736192N00046259WA0000000358
B1724103736186N00046283WA0000000359
B1724163736175N00046281WA0000000361
B1724223736171N00046266WA0000000362
B1724283736176N00046240WA0000000364
B1724343736175N00046218WA0000000367
B1724403736170N00046200WA0000000370
B1724463736165N00046182WA0000000371
B1724523736161N00046164WA0000000370
B1724583736149N00046171WA0000000365
B1725043736153N00046205WA0000000364
B1725103736188N00046218WA0000000363
B1725163736202N00046195WA0000000364
B1725223736194N00046186WA0000000364
B1725283736183N00046175WA0000000361
B1725343736171N00046159WA0000000356
B1725403736161N00046140WA0000000354
B1725463736153N00046123WA0000000350
B1725523736142N00046104WA0000000346
B1725583736133N00046084WA0000000345
B1726043736123N00046068WA0000000348
B1726103736113N00046049WA0000000351
B1726163736104N00046031WA0000000349
B1726223736097N00046008WA0000000341
B1726283736094N00045981WA0000000336
B1726343736093N00045954WA0000000329
B1726403736099N00045922WA0000000324
B1726463736118N00045893WA0000000320
B1726523736150N00045879WA0000000317
B1726583736184N00045886WA0000000317
B1727043736220N00045886WA0000000314
B1727103736257N00045880WA0000000309
B1727163736295N00045878WA0000000304
B1727223736335N00045882WA0000000300
B1727283736375N00045890WA0000000295
B1727343736415N00045905WA0000000291
B1727403736453N00045929WA0000000288
B1727463736492N00045950WA0000000286
B1727523736533N00045950WA0000000283
B1727583736556N00045922WA0000000276
B1728043736573N00045890WA0000000269
B1728103736587N00045863WA0000000257
B1728163736600N00045833WA0000000245
B1728223736617N00045801WA0000000237
B1728283736635N00045769WA0000000231
B1728343736650N00045737WA0000000235
B1728403736664N00045711WA0000000229
B1728463736685N00045684WA0000000218
B1728523736711N00045655WA0000000214
B1728583736740N00045629WA0000000214
B1729043736776N00045612WA0000000200
B1729103736814N00045599WA0000000187
B1729163736854N00045589WA0000000175
B1729223736896N00045584WA0000000165
B1729283736938N00045593WA0000000155
B1729343736979N00045598WA0000000152
B1729403737007N00045576WA0000000156
B1729463737028N00045553WA0000000163
B1729523737049N00045535WA0000000165
B1729583737063N00045515WA0000000167
B1730043737053N00045520WA0000000167
B1730103737043N00045547WA0000000165
B1730163737031N00045574WA0000000165
B1730223737022N00045604WA0000000170
B1730283737018N00045631WA0000000169
B1730343737013N00045661WA0000000168
B1730403737002N00045686WA0000000167
B1730463737004N00045671WA0000000171
B1730523737022N00045651WA0000000176
B1730583737035N00045626WA0000000174
B1731043737045N00045601WA0000000176
B1731103737047N00045582WA0000000172
B1731163737035N00045584WA0000000175
B1731223737027N00045606WA0000000176
B1731283737022N00045631WA0000000173
B1731343737015N00045654WA0000000173
B1731403737007N00045682WA0000000166
B1731463736998N00045678WA0000000163
B1731523737009N00045654WA0000000172
B1731583737022N00045633WA0000000173
B1732043737028N00045609WA0000000173
B1732103737035N00045583WA0000000171
B1732163737044N00045556WA0000000170
B1732223737055N00045526WA0000000175
B1732283737073N00045497WA0000000177
B1732343737070N00045486WA0000000176
B1732403737066N00045509WA0000000173
B1732463737063N00045504WA0000000168
B1732523737078N00045477WA0000000165
B1732583737070N00045477WA0000000161
B1733043737061N00045498WA0000000158
B1733103737049N00045518WA0000000153
B1733163737033N00045541WA0000000152
B1733223737021N00045568WA0000000155
B1733283737014N00045597WA0000000161
B1733343737008N00045624WA0000000161
B1733403737003N00045654WA0000000165
B1733463736996N00045685WA0000000166
B1733523736988N00045692WA0000000162
B1733583736998N00045672WA0000000160
B1734043737009N00045651WA0000000164
B1734103737021N00045628WA0000000168
B1734163737038N00045604WA0000000172
B1734223737051N00045578WA0000000173
B1734283737063N00045553WA0000000173
B1734343737064N00045533WA0000000171
B1734403737071N00045507WA0000000166
B1734463737081N00045479WA0000000169
B1734523737081N00045459WA0000000168
B1734583737071N00045472WA0000000165
B1735043737064N00045491WA0000000165
B1735103737058N00045513WA0000000166
B1735163737050N00045532WA0000000163
B1735223737038N00045550WA0000000159
B1735283737025N00045570WA0000000163
B1735343737023N00045598WA0000000163
B1735403737016N00045624WA0000000166
B1735463737010N00045646WA0000000169
B1735523737006N00045675WA0000000169
B1735583736995N00045682WA0000000166
B1736043737009N00045661WA0000000167
B1736103737025N00045639WA0000000168
B1736163737040N00045614WA0000000169
B1736223737044N00045592WA0000000170
B1736283737033N00045592WA0000000177
B1736343737023N00045575WA0000000187
B1736403737017N00045561WA0000000193
B1736463737012N00045587WA0000000199
B1736523737020N00045626WA0000000205
B1736583737010N00045642WA0000000210
B1737043737008N00045624WA0000000219
B1737103737018N00045602WA0000000226
B1737163737011N00045605WA0000000227
B1737223737015N00045641WA0000000232
B1737283737049N00045661WA0000000238
B1737343737056N00045645WA0000000243
B1737403737046N00045642WA0000000249
B1737463737035N00045632WA0000000254
B1737523737024N00045630WA0000000253
B1737583737019N00045660WA0000000255
B1738043737046N00045698WA0000000254
B1738103737079N00045691WA0000000250
B1738163737077N00045689WA0000000249
B1738223737074N00045722WA0000000245
B1738283737076N00045766WA0000000232
B1738343737083N00045811WA0000000223
B1738403737087N00045856WA0000000219
B1738463737092N00045896WA0000000207
B1738523737095N00045936WA0000000198
B1738583737097N00045970WA0000000187
B1739043737095N00046004WA0000000184
B1739103737095N00046044WA0000000174
B1739163737098N00046085WA0000000160
B1739223737101N00046127WA0000000147
B1739283737102N00046169WA0000000134
B1739343737098N00046208WA0000000122
B1739403737088N00046243WA0000000109
B1739463737080N00046282WA0000000097
B1739523737076N00046325WA0000000092
B1739583737064N00046357WA0000000090
B1740043737051N00046374WA0000000091
B1740103737037N00046386WA0000000087
B1740163737020N00046394WA0000000079
B1740223737002N00046407WA0000000074
B1740283736990N00046425WA0000000068
B1740343736979N00046431WA0000000065
B1740403736974N00046423WA0000000064
B1740463736976N00046412WA0000000058
LXCG     VERSION:5.7
GAA23DE95A82A35081A90C369053FE199325995D28364EA0E13EB347714A485E33C80B
GB514CEF6BF9B2733EBEF96A4A50E279A153299EC140D52E7E0CD890A3EE4D2D4583
GC54FB65FBA5CDEDEBD84B41A4356AB9E972889F937CDAB4F60AACCF935F5FC59965
G8C1B8360A428AE749BB6D9A9000F4B929D4784EFC709D69D1C318D9696975